Aviation Digital Data Service (ADDS)

Output produced by METARs form (0930 UTC 24 March 2019)
found at http://www.aviationweather.gov/metar/data/
 
METAR text: OAIX 240858Z 00000KT 9999 FEW090 15/03 A3016 RMK AO2A SLP162 T01510029 $
Conditions at: OAIX (BAGRAM , AF) observed 0858 UTC 24 March 2019
Temperature: 15.1°C (59°F)
Dewpoint: 2.9°C (37°F) [RH = 44%]
Pressure (altimeter): 30.16 inches Hg (1021.4 mb)
[Sea-level pressure: 1016.2 mb]
Winds: calm
Visibility: 6 or more miles (10+ km)
Ceiling: at least 12,000 feet AGL
Clouds: few clouds at 9000 feet AGL
Weather:
SOME DATA ABOVE MAY BE INACCURATE!!!
"$" is an indication the sensor requires maintenance

METAR text: OAIX 240758Z 03003KT 9999 FEW090 FEW350 15/05 A3018 RMK AO2A SLP169
Conditions at: OAIX (BAGRAM , AF) observed 0758 UTC 24 March 2019
Temperature: 15.0°C (59°F)
Dewpoint: 5.0°C (41°F) [RH = 51%]
Pressure (altimeter): 30.18 inches Hg (1022.1 mb)
[Sea-level pressure: 1016.9 mb]
Winds: from the NNE (30 degrees) at 3 MPH (3 knots; 1.5 m/s)
Visibility: 6 or more miles (10+ km)
Ceiling: at least 12,000 feet AGL
Clouds: few clouds at 9000 feet AGL
few clouds at 35000 feet AGL
Weather: no significant weather observed at this time

METAR text: OAIX 240659Z 00000KT 9999 CLR 13/06 A3018 RMK AO2A SLPNO $
Conditions at: OAIX (BAGRAM , AF) observed 0659 UTC 24 March 2019
Temperature: 13.0°C (55°F)
Dewpoint: 6.0°C (43°F) [RH = 62%]
Pressure (altimeter): 30.18 inches Hg (1022.1 mb)
Winds: calm
Visibility: 6 or more miles (10+ km)
Ceiling: at least 12,000 feet AGL
Clouds: sky clear below 12,000 feet AGL
Weather:
SOME DATA ABOVE MAY BE INACCURATE!!!
"$" is an indication the sensor requires maintenance

METAR text: OAIX 240602Z 00000KT 9999 CLR 12/05 A3019 RMK SLP190 $
Conditions at: OAIX (BAGRAM , AF) observed 0602 UTC 24 March 2019
Temperature: 12.0°C (54°F)
Dewpoint: 5.0°C (41°F) [RH = 62%]
Pressure (altimeter): 30.19 inches Hg (1022.4 mb)
[Sea-level pressure: 1019.0 mb]
Winds: calm
Visibility: 6 or more miles (10+ km)
Ceiling: at least 12,000 feet AGL
Clouds: sky clear below 12,000 feet AGL
Weather:
SOME DATA ABOVE MAY BE INACCURATE!!!
"$" is an indication the sensor requires maintenance

METAR text: OAIX 240558Z COR 00000KT 9999 CLR 12/05 A3019 RMK SLP172 $ COR 0605
Conditions at: OAIX (BAGRAM , AF) observed 0558 UTC 24 March 2019
Temperature: 12.0°C (54°F)
Dewpoint: 5.0°C (41°F) [RH = 62%]
Pressure (altimeter): 30.19 inches Hg (1022.4 mb)
[Sea-level pressure: 1017.2 mb]
Winds: calm
Visibility: 6 or more miles (10+ km)
Ceiling: at least 12,000 feet AGL
Clouds: sky clear below 12,000 feet AGL
Weather:
SOME DATA ABOVE MAY BE INACCURATE!!!
"$" is an indication the sensor requires maintenance

METAR text: OAIX 240458Z 00000KT 9999 CLR 10/05 A3023 RMK SLP190 T01020049 $
Conditions at: OAIX (BAGRAM , AF) observed 0458 UTC 24 March 2019
Temperature: 10.2°C (50°F)
Dewpoint: 4.9°C (41°F) [RH = 70%]
Pressure (altimeter): 30.23 inches Hg (1023.8 mb)
[Sea-level pressure: 1019.0 mb]
Winds: calm
Visibility: 6 or more miles (10+ km)
Ceiling: at least 12,000 feet AGL
Clouds: sky clear below 12,000 feet AGL
Weather:
SOME DATA ABOVE MAY BE INACCURATE!!!
"$" is an indication the sensor requires maintenance

METAR text: OAIX 240357Z 00000KT 9999 CLR 08/04 A3022 RMK SLP190 T00780042 $
Conditions at: OAIX (BAGRAM , AF) observed 0357 UTC 24 March 2019
Temperature: 7.8°C (46°F)
Dewpoint: 4.2°C (40°F) [RH = 78%]
Pressure (altimeter): 30.22 inches Hg (1023.5 mb)
[Sea-level pressure: 1019.0 mb]
Winds: calm
Visibility: 6 or more miles (10+ km)
Ceiling: at least 12,000 feet AGL
Clouds: sky clear below 12,000 feet AGL
Weather:
SOME DATA ABOVE MAY BE INACCURATE!!!
"$" is an indication the sensor requires maintenance

METAR text: OAIX 240257Z 00000KT 9999 CLR 05/03 A3021 RMK SLP186 T00540033 52011 $
Conditions at: OAIX (BAGRAM , AF) observed 0257 UTC 24 March 2019
Temperature: 5.4°C (42°F)
Dewpoint: 3.3°C (38°F) [RH = 86%]
Pressure (altimeter): 30.21 inches Hg (1023.1 mb)
[Sea-level pressure: 1018.6 mb]
Winds: calm
Visibility: 6 or more miles (10+ km)
Ceiling: at least 12,000 feet AGL
Clouds: sky clear below 12,000 feet AGL
Weather:
SOME DATA ABOVE MAY BE INACCURATE!!!
"$" is an indication the sensor requires maintenance

METAR text: OAIX 240155Z 00000KT 9999 CLR 03/02 A3017 RMK AO2A SLP185 T00340021
Conditions at: OAIX (BAGRAM , AF) observed 0155 UTC 24 March 2019
Temperature: 3.4°C (38°F)
Dewpoint: 2.1°C (36°F) [RH = 91%]
Pressure (altimeter): 30.17 inches Hg (1021.8 mb)
[Sea-level pressure: 1018.5 mb]
Winds: calm
Visibility: 6 or more miles (10+ km)
Ceiling: at least 12,000 feet AGL
Clouds: sky clear below 12,000 feet AGL
Weather: no significant weather observed at this time

METAR text: OAIX 240058Z 00000KT 9999 CLR 03/02 A3019 RMK SLP183 T00350021
Conditions at: OAIX (BAGRAM , AF) observed 0058 UTC 24 March 2019
Temperature: 3.5°C (38°F)
Dewpoint: 2.1°C (36°F) [RH = 91%]
Pressure (altimeter): 30.19 inches Hg (1022.4 mb)
[Sea-level pressure: 1018.3 mb]
Winds: calm
Visibility: 6 or more miles (10+ km)
Ceiling: at least 12,000 feet AGL
Clouds: sky clear below 12,000 feet AGL
Weather: no significant weather observed at this time

METAR text: OAIX 232355Z 00000KT 9999 CLR 04/02 A3017 RMK SLP172 T00350024 10072 20027 56006 $
Conditions at: OAIX (BAGRAM , AF) observed 2355 UTC 23 March 2019
Temperature: 3.5°C (38°F)
Dewpoint: 2.4°C (36°F) [RH = 92%]
Pressure (altimeter): 30.17 inches Hg (1021.8 mb)
[Sea-level pressure: 1017.2 mb]
Winds: calm
Visibility: 6 or more miles (10+ km)
Ceiling: at least 12,000 feet AGL
Clouds: sky clear below 12,000 feet AGL
Weather:
SOME DATA ABOVE MAY BE INACCURATE!!!
"$" is an indication the sensor requires maintenance

METAR text: OAIX 232255Z 00000KT 9999 CLR 04/03 A3017 RMK SLP172 T00360027 $
Conditions at: OAIX (BAGRAM , AF) observed 2255 UTC 23 March 2019
Temperature: 3.6°C (38°F)
Dewpoint: 2.7°C (37°F) [RH = 94%]
Pressure (altimeter): 30.17 inches Hg (1021.8 mb)
[Sea-level pressure: 1017.2 mb]
Winds: calm
Visibility: 6 or more miles (10+ km)
Ceiling: at least 12,000 feet AGL
Clouds: sky clear below 12,000 feet AGL
Weather:
SOME DATA ABOVE MAY BE INACCURATE!!!
"$" is an indication the sensor requires maintenance

METAR text: OAIX 232158Z 00000KT 9999 CLR 04/03 A3015 RMK SLP179 T00370029
Conditions at: OAIX (BAGRAM , AF) observed 2158 UTC 23 March 2019
Temperature: 3.7°C (39°F)
Dewpoint: 2.9°C (37°F) [RH = 94%]
Pressure (altimeter): 30.15 inches Hg (1021.1 mb)
[Sea-level pressure: 1017.9 mb]
Winds: calm
Visibility: 6 or more miles (10+ km)
Ceiling: at least 12,000 feet AGL
Clouds: sky clear below 12,000 feet AGL
Weather: no significant weather observed at this time

METAR text: OAIX 232058Z 00000KT 9999 CLR 04/03 A3017 RMK SLP184 T00390033 57001
Conditions at: OAIX (BAGRAM , AF) observed 2058 UTC 23 March 2019
Temperature: 3.9°C (39°F)
Dewpoint: 3.3°C (38°F) [RH = 96%]
Pressure (altimeter): 30.17 inches Hg (1021.8 mb)
[Sea-level pressure: 1018.4 mb]
Winds: calm
Visibility: 6 or more miles (10+ km)
Ceiling: at least 12,000 feet AGL
Clouds: sky clear below 12,000 feet AGL
Weather: no significant weather observed at this time

METAR text: OAIX 231958Z 00000KT 9999 CLR 04/03 A3020 RMK SLP186 T00500041
Conditions at: OAIX (BAGRAM , AF) observed 1958 UTC 23 March 2019
Temperature: 5.0°C (41°F)
Dewpoint: 3.0°C (37°F) [RH = 87%]
Pressure (altimeter): 30.20 inches Hg (1022.8 mb)
[Sea-level pressure: 1018.6 mb]
Winds: calm
Visibility: 6 or more miles (10+ km)
Ceiling: at least 12,000 feet AGL
Clouds: sky clear below 12,000 feet AGL
Weather: no significant weather observed at this time

METAR text: OAIX 231857Z 00000KT 9999 SCT250 06/05 A3019 RMK AO2A SLP184 T00600050 401200053 $
Conditions at: OAIX (BAGRAM , AF) observed 1857 UTC 23 March 2019
Temperature: 6.0°C (43°F)
Dewpoint: 5.0°C (41°F) [RH = 93%]
Pressure (altimeter): 30.19 inches Hg (1022.4 mb)
[Sea-level pressure: 1018.4 mb]
Winds: calm
Visibility: 6 or more miles (10+ km)
Ceiling: at least 12,000 feet AGL
Clouds: scattered clouds at 25000 feet AGL
Weather:
SOME DATA ABOVE MAY BE INACCURATE!!!
"$" is an indication the sensor requires maintenance

METAR text: OAIX 231756Z 00000KT 9999 FEW080 BKN250 07/05 A3020 RMK AO2A SLP182 T00720054 10116 20066 51008 $
Conditions at: OAIX (BAGRAM , AF) observed 1756 UTC 23 March 2019
Temperature: 7.2°C (45°F)
Dewpoint: 5.4°C (42°F) [RH = 88%]
Pressure (altimeter): 30.20 inches Hg (1022.8 mb)
[Sea-level pressure: 1018.2 mb]
Winds: calm
Visibility: 6 or more miles (10+ km)
Ceiling: 25000 feet AGL
Clouds: few clouds at 8000 feet AGL
broken clouds at 25000 feet AGL
Weather:
SOME DATA ABOVE MAY BE INACCURATE!!!
"$" is an indication the sensor requires maintenance

METAR text: OAIX 231659Z 00000KT 9999 BKN075 07/06 A3019 RMK AO2A SLP184 T00710058 $
Conditions at: OAIX (BAGRAM , AF) observed 1659 UTC 23 March 2019
Temperature: 7.1°C (45°F)
Dewpoint: 5.8°C (42°F) [RH = 91%]
Pressure (altimeter): 30.19 inches Hg (1022.4 mb)
[Sea-level pressure: 1018.4 mb]
Winds: calm
Visibility: 6 or more miles (10+ km)
Ceiling: 7500 feet AGL
Clouds: broken clouds at 7500 feet AGL
Weather:
SOME DATA ABOVE MAY BE INACCURATE!!!
"$" is an indication the sensor requires maintenance

METAR text: OAIX 231556Z 00000KT 9999 SCT080 08/06 A3018 RMK AO2A SLP180 T00780058 $
Conditions at: OAIX (BAGRAM , AF) observed 1556 UTC 23 March 2019
Temperature: 7.8°C (46°F)
Dewpoint: 5.8°C (42°F) [RH = 87%]
Pressure (altimeter): 30.18 inches Hg (1022.1 mb)
[Sea-level pressure: 1018.0 mb]
Winds: calm
Visibility: 6 or more miles (10+ km)
Ceiling: at least 12,000 feet AGL
Clouds: scattered clouds at 8000 feet AGL
Weather:
SOME DATA ABOVE MAY BE INACCURATE!!!
"$" is an indication the sensor requires maintenance

METAR text: OAIX 231459Z 00000KT 9999 CLR 08/06 A3018 RMK AO2A SLP174 T00840055 51003 $
Conditions at: OAIX (BAGRAM , AF) observed 1459 UTC 23 March 2019
Temperature: 8.4°C (47°F)
Dewpoint: 5.5°C (42°F) [RH = 82%]
Pressure (altimeter): 30.18 inches Hg (1022.1 mb)
[Sea-level pressure: 1017.4 mb]
Winds: calm
Visibility: 6 or more miles (10+ km)
Ceiling: at least 12,000 feet AGL
Clouds: sky clear below 12,000 feet AGL
Weather:
SOME DATA ABOVE MAY BE INACCURATE!!!
"$" is an indication the sensor requires maintenance

METAR text: OAIX 231359Z 00000KT 9999 CLR 10/05 A3017 RMK AO2A SLP173 T01000053 $
Conditions at: OAIX (BAGRAM , AF) observed 1359 UTC 23 March 2019
Temperature: 10.0°C (50°F)
Dewpoint: 5.3°C (42°F) [RH = 73%]
Pressure (altimeter): 30.17 inches Hg (1021.8 mb)
[Sea-level pressure: 1017.3 mb]
Winds: calm
Visibility: 6 or more miles (10+ km)
Ceiling: at least 12,000 feet AGL
Clouds: sky clear below 12,000 feet AGL
Weather:
SOME DATA ABOVE MAY BE INACCURATE!!!
"$" is an indication the sensor requires maintenance

METAR text: OAIX 231342Z 00000KT 9999 FEW060 10/05 A3017 RMK AO2A LTG DSNT N SLP170 $
Conditions at: OAIX (BAGRAM , AF) observed 1342 UTC 23 March 2019
Temperature: 10.0°C (50°F)
Dewpoint: 5.0°C (41°F) [RH = 71%]
Pressure (altimeter): 30.17 inches Hg (1021.8 mb)
[Sea-level pressure: 1017.0 mb]
Winds: calm
Visibility: 6 or more miles (10+ km)
Ceiling: at least 12,000 feet AGL
Clouds: few clouds at 6000 feet AGL
Weather:
SOME DATA ABOVE MAY BE INACCURATE!!!
"$" is an indication the sensor requires maintenance

METAR text: OAIX 231259Z 00000KT 9999 SCT060 11/05 A3015 RMK AO2A SLP165 T01080049 $
Conditions at: OAIX (BAGRAM , AF) observed 1259 UTC 23 March 2019
Temperature: 10.8°C (51°F)
Dewpoint: 4.9°C (41°F) [RH = 67%]
Pressure (altimeter): 30.15 inches Hg (1021.1 mb)
[Sea-level pressure: 1016.5 mb]
Winds: calm
Visibility: 6 or more miles (10+ km)
Ceiling: at least 12,000 feet AGL
Clouds: scattered clouds at 6000 feet AGL
Weather:
SOME DATA ABOVE MAY BE INACCURATE!!!
"$" is an indication the sensor requires maintenance

METAR text: OAIX 231258Z 00000KT 9999 SCT060 11/05 A3017 RMK AO2A SLP169 T01080049 $
Conditions at: OAIX (BAGRAM , AF) observed 1258 UTC 23 March 2019
Temperature: 10.8°C (51°F)
Dewpoint: 4.9°C (41°F) [RH = 67%]
Pressure (altimeter): 30.17 inches Hg (1021.8 mb)
[Sea-level pressure: 1016.9 mb]
Winds: calm
Visibility: 6 or more miles (10+ km)
Ceiling: at least 12,000 feet AGL
Clouds: scattered clouds at 6000 feet AGL
Weather:
SOME DATA ABOVE MAY BE INACCURATE!!!
"$" is an indication the sensor requires maintenance

METAR text: OAIX 231159Z 00000KT 9999 FEW025 SCT060 12/06 A3015 RMK AO2A SLP165 70009 T01160055 10120 20081 56017 $
Conditions at: OAIX (BAGRAM , AF) observed 1159 UTC 23 March 2019
Temperature: 11.6°C (53°F)
Dewpoint: 5.5°C (42°F) [RH = 66%]
Pressure (altimeter): 30.15 inches Hg (1021.1 mb)
[Sea-level pressure: 1016.5 mb]
Winds: calm
Visibility: 6 or more miles (10+ km)
Ceiling: at least 12,000 feet AGL
Clouds: few clouds at 2500 feet AGL
scattered clouds at 6000 feet AGL
Weather:
SOME DATA ABOVE MAY BE INACCURATE!!!
"$" is an indication the sensor requires maintenance

METAR text: OAIX 231148Z 00000KT 9999 FEW027 SCT060 12/05 A3016 RMK AO2A SLP166 $
Conditions at: OAIX (BAGRAM , AF) observed 1148 UTC 23 March 2019
Temperature: 12.0°C (54°F)
Dewpoint: 5.0°C (41°F) [RH = 62%]
Pressure (altimeter): 30.16 inches Hg (1021.4 mb)
[Sea-level pressure: 1016.6 mb]
Winds: calm
Visibility: 6 or more miles (10+ km)
Ceiling: at least 12,000 feet AGL
Clouds: few clouds at 2700 feet AGL
scattered clouds at 6000 feet AGL
Weather:
SOME DATA ABOVE MAY BE INACCURATE!!!
"$" is an indication the sensor requires maintenance

METAR text: OAIX 231122Z 00000KT 9999 FEW027 BKN060 12/05 A3017 RMK AO2A SLP167 $
Conditions at: OAIX (BAGRAM , AF) observed 1122 UTC 23 March 2019
Temperature: 12.0°C (54°F)
Dewpoint: 5.0°C (41°F) [RH = 62%]
Pressure (altimeter): 30.17 inches Hg (1021.8 mb)
[Sea-level pressure: 1016.7 mb]
Winds: calm
Visibility: 6 or more miles (10+ km)
Ceiling: 6000 feet AGL
Clouds: few clouds at 2700 feet AGL
broken clouds at 6000 feet AGL
Weather:
SOME DATA ABOVE MAY BE INACCURATE!!!
"$" is an indication the sensor requires maintenance

METAR text: OAIX 231057Z 00000KT 9999 FEW025 SCT050 OVC100 11/05 A3017 RMK AO2A SLP169 T01080054
Conditions at: OAIX (BAGRAM , AF) observed 1057 UTC 23 March 2019
Temperature: 10.8°C (51°F)
Dewpoint: 5.4°C (42°F) [RH = 69%]
Pressure (altimeter): 30.17 inches Hg (1021.8 mb)
[Sea-level pressure: 1016.9 mb]
Winds: calm
Visibility: 6 or more miles (10+ km)
Ceiling: 10000 feet AGL
Clouds: few clouds at 2500 feet AGL
scattered clouds at 5000 feet AGL
overcast cloud deck at 10000 feet AGL
Weather: no significant weather observed at this time

METAR text: OAIX 230958Z 13003KT 9999 FEW025 SCT050 BKN100 11/05 A3016 RMK AO2A SLP168 $
Conditions at: OAIX (BAGRAM , AF) observed 0958 UTC 23 March 2019
Temperature: 11.0°C (52°F)
Dewpoint: 5.0°C (41°F) [RH = 66%]
Pressure (altimeter): 30.16 inches Hg (1021.4 mb)
[Sea-level pressure: 1016.8 mb]
Winds: from the SE (130 degrees) at 3 MPH (3 knots; 1.5 m/s)
Visibility: 6 or more miles (10+ km)
Ceiling: 10000 feet AGL
Clouds: few clouds at 2500 feet AGL
scattered clouds at 5000 feet AGL
broken clouds at 10000 feet AGL
Weather:
SOME DATA ABOVE MAY BE INACCURATE!!!
"$" is an indication the sensor requires maintenance

METAR text: OAIX 230921Z 00000KT 9999 FEW022 SCT050 BKN100 10/06 A3020 RMK AO2A SLP179
Conditions at: OAIX (BAGRAM , AF) observed 0921 UTC 23 March 2019
Temperature: 10.0°C (50°F)
Dewpoint: 6.0°C (43°F) [RH = 76%]
Pressure (altimeter): 30.20 inches Hg (1022.8 mb)
[Sea-level pressure: 1017.9 mb]
Winds: calm
Visibility: 6 or more miles (10+ km)
Ceiling: 10000 feet AGL
Clouds: few clouds at 2200 feet AGL
scattered clouds at 5000 feet AGL
broken clouds at 10000 feet AGL
Weather: no significant weather observed at this time

METAR text: OAIX 230858Z 00000KT 9999 FEW022 BKN038 OVC047 10/06 A3022 RMK AO2A SLP186 T00980060 57009 $
Conditions at: OAIX (BAGRAM , AF) observed 0858 UTC 23 March 2019
Temperature: 9.8°C (50°F)
Dewpoint: 6.0°C (43°F) [RH = 77%]
Pressure (altimeter): 30.22 inches Hg (1023.5 mb)
[Sea-level pressure: 1018.6 mb]
Winds: calm
Visibility: 6 or more miles (10+ km)
Ceiling: 3800 feet AGL
Clouds: few clouds at 2200 feet AGL
broken clouds at 3800 feet AGL
overcast cloud deck at 4700 feet AGL
Weather:
SOME DATA ABOVE MAY BE INACCURATE!!!
"$" is an indication the sensor requires maintenance

METAR text: OAIX 230758Z 00000KT 9000 BR FEW007 SCT029 OVC037 09/05 A3023 RMK A02A SLP190 58005
Conditions at: OAIX (BAGRAM , AF) observed 0758 UTC 23 March 2019
Temperature: 9.0°C (48°F)
Dewpoint: 5.0°C (41°F) [RH = 76%]
Pressure (altimeter): 30.23 inches Hg (1023.8 mb)
[Sea-level pressure: 1019.0 mb]
Winds: calm
Visibility: 6 miles ( 9 km)
Ceiling: 3700 feet AGL
Clouds: few clouds at 700 feet AGL
scattered clouds at 2900 feet AGL
overcast cloud deck at 3700 feet AGL
Weather: BR  (mist)

METAR text: OAIX 230753Z 00000KT 9000 BR FEW007 SCT029 BKN037 09/05 A3024 RMK AO2A SLP197 $
Conditions at: OAIX (BAGRAM , AF) observed 0753 UTC 23 March 2019
Temperature: 9.0°C (48°F)
Dewpoint: 5.0°C (41°F) [RH = 76%]
Pressure (altimeter): 30.24 inches Hg (1024.1 mb)
[Sea-level pressure: 1019.7 mb]
Winds: calm
Visibility: 6 miles ( 9 km)
Ceiling: 3700 feet AGL
Clouds: few clouds at 700 feet AGL
scattered clouds at 2900 feet AGL
broken clouds at 3700 feet AGL
Weather: BR  (mist)
SOME DATA ABOVE MAY BE INACCURATE!!!
"$" is an indication the sensor requires maintenance

METAR text: OAIX 230658Z 04003KT 9000 BR FEW009 OVC030 09/05 A3025 RMK AO2A RAE0558 SLP197
Conditions at: OAIX (BAGRAM , AF) observed 0658 UTC 23 March 2019
Temperature: 9.0°C (48°F)
Dewpoint: 5.0°C (41°F) [RH = 76%]
Pressure (altimeter): 30.25 inches Hg (1024.5 mb)
[Sea-level pressure: 1019.7 mb]
Winds: from the NE (40 degrees) at 3 MPH (3 knots; 1.5 m/s)
Visibility: 6 miles ( 9 km)
Ceiling: 3000 feet AGL
Clouds: few clouds at 900 feet AGL
overcast cloud deck at 3000 feet AGL
Weather: BR  (mist)

METAR text: OAIX 230627Z 01004KT 9000 BR FEW009 OVC032 08/05 A3025 RMK AO2A RAE0558 SLPNO
Conditions at: OAIX (BAGRAM , AF) observed 0627 UTC 23 March 2019
Temperature: 8.0°C (46°F)
Dewpoint: 5.0°C (41°F) [RH = 81%]
Pressure (altimeter): 30.25 inches Hg (1024.5 mb)
Winds: from the N (10 degrees) at 5 MPH (4 knots; 2.1 m/s)
Visibility: 6 miles ( 9 km)
Ceiling: 3200 feet AGL
Clouds: few clouds at 900 feet AGL
overcast cloud deck at 3200 feet AGL
Weather: BR  (mist)

METAR text: OAIX 230558Z 01006KT 8000 -RA BR FEW009 BKN022 OVC033 08/06 A3025 RMK VIS 4000 SLP200 P0000 60005 51011 $
Conditions at: OAIX (BAGRAM , AF) observed 0558 UTC 23 March 2019
Temperature: 8.0°C (46°F)
Dewpoint: 6.0°C (43°F) [RH = 87%]
Pressure (altimeter): 30.25 inches Hg (1024.5 mb)
[Sea-level pressure: 1020.0 mb]
Winds: from the N (10 degrees) at 7 MPH (6 knots; 3.1 m/s)
Visibility: 5 miles ( 8 km)
Ceiling: 2200 feet AGL
Clouds: few clouds at 900 feet AGL
broken clouds at 2200 feet AGL
overcast cloud deck at 3300 feet AGL
Weather: -RA BR  (light rain, mist)
SOME DATA ABOVE MAY BE INACCURATE!!!
"$" is an indication the sensor requires maintenance

METAR text: OAIX 230525Z 01005KT 6000 -RA BR SCT009 OVC019 07/06 A3025 RMK AO2A RAE0458RAB19 CIG 009V019 SLP200 $
Conditions at: OAIX (BAGRAM , AF) observed 0525 UTC 23 March 2019
Temperature: 7.0°C (45°F)
Dewpoint: 6.0°C (43°F) [RH = 93%]
Pressure (altimeter): 30.25 inches Hg (1024.5 mb)
[Sea-level pressure: 1020.0 mb]
Winds: from the N (10 degrees) at 6 MPH (5 knots; 2.6 m/s)
Visibility: 4 miles ( 6 km)
Ceiling: 1900 feet AGL
Clouds: scattered clouds at 900 feet AGL
overcast cloud deck at 1900 feet AGL
Weather: -RA BR  (light rain, mist)
SOME DATA ABOVE MAY BE INACCURATE!!!
"$" is an indication the sensor requires maintenance

METAR text: OAIX 230458Z 00000KT 6000 -RA BR SCT007 BKN033 OVC048 08/06 A3025 RMK AO2A SLP197 P0002 T00750062 $
Conditions at: OAIX (BAGRAM , AF) observed 0458 UTC 23 March 2019
Temperature: 7.5°C (46°F)
Dewpoint: 6.2°C (43°F) [RH = 91%]
Pressure (altimeter): 30.25 inches Hg (1024.5 mb)
[Sea-level pressure: 1019.7 mb]
Winds: calm
Visibility: 4 miles ( 6 km)
Ceiling: 3300 feet AGL
Clouds: scattered clouds at 700 feet AGL
broken clouds at 3300 feet AGL
overcast cloud deck at 4800 feet AGL
Weather: -RA BR  (light rain, mist)
SOME DATA ABOVE MAY BE INACCURATE!!!
"$" is an indication the sensor requires maintenance

METAR text: OAIX 230358Z 00000KT 6000 -RA BR OVC028 07/06 A3024 RMK AO2A RAE11RAB12 OVC V BKN CIG 018 RWY21 SLPNO P0001 T00710064 $
Conditions at: OAIX (BAGRAM , AF) observed 0358 UTC 23 March 2019
Temperature: 7.1°C (45°F)
Dewpoint: 6.4°C (44°F) [RH = 95%]
Pressure (altimeter): 30.24 inches Hg (1024.1 mb)
Winds: calm
Visibility: 4 miles ( 6 km)
Ceiling: 2800 feet AGL
Clouds: overcast cloud deck at 2800 feet AGL
Weather: -RA BR  (light rain, mist)
SOME DATA ABOVE MAY BE INACCURATE!!!
"$" is an indication the sensor requires maintenance

METAR text: OAIX 230258Z 00000KT 8000 -RA BR OVC032 07/06 A3021 RMK SLP184 P0002 60002 T00700061 50005 $
Conditions at: OAIX (BAGRAM , AF) observed 0258 UTC 23 March 2019
Temperature: 7.0°C (45°F)
Dewpoint: 6.1°C (43°F) [RH = 94%]
Pressure (altimeter): 30.21 inches Hg (1023.1 mb)
[Sea-level pressure: 1018.4 mb]
Winds: calm
Visibility: 5 miles ( 8 km)
Ceiling: 3200 feet AGL
Clouds: overcast cloud deck at 3200 feet AGL
Weather: -RA BR  (light rain, mist)
SOME DATA ABOVE MAY BE INACCURATE!!!
"$" is an indication the sensor requires maintenance

METAR text: OAIX 230155Z 00000KT 8000 -RA BR BKN030 OVC036 07/06 A3022 RMK SLP183 P0000 T00710060 $
Conditions at: OAIX (BAGRAM , AF) observed 0155 UTC 23 March 2019
Temperature: 7.1°C (45°F)
Dewpoint: 6.0°C (43°F) [RH = 93%]
Pressure (altimeter): 30.22 inches Hg (1023.5 mb)
[Sea-level pressure: 1018.3 mb]
Winds: calm
Visibility: 5 miles ( 8 km)
Ceiling: 3000 feet AGL
Clouds: broken clouds at 3000 feet AGL
overcast cloud deck at 3600 feet AGL
Weather: -RA BR  (light rain, mist)
SOME DATA ABOVE MAY BE INACCURATE!!!
"$" is an indication the sensor requires maintenance

METAR text: OAIX 230056Z 00000KT 9999 -RA BKN031 OVC043 07/06 A3020 RMK SLP172 P0000 T00700059 $
Conditions at: OAIX (BAGRAM , AF) observed 0056 UTC 23 March 2019
Temperature: 7.0°C (45°F)
Dewpoint: 5.9°C (43°F) [RH = 93%]
Pressure (altimeter): 30.20 inches Hg (1022.8 mb)
[Sea-level pressure: 1017.2 mb]
Winds: calm
Visibility: 6 or more miles (10+ km)
Ceiling: 3100 feet AGL
Clouds: broken clouds at 3100 feet AGL
overcast cloud deck at 4300 feet AGL
Weather: -RA  (light rain)
SOME DATA ABOVE MAY BE INACCURATE!!!
"$" is an indication the sensor requires maintenance

METAR text: OAIX 222355Z 00000KT 9999 -RA OVC035 07/06 A3020 RMK SLP172 P0001 60004 T00720061 10084 20070 55004 $
Conditions at: OAIX (BAGRAM , AF) observed 2355 UTC 22 March 2019
Temperature: 7.2°C (45°F)
Dewpoint: 6.1°C (43°F) [RH = 93%]
Pressure (altimeter): 30.20 inches Hg (1022.8 mb)
[Sea-level pressure: 1017.2 mb]
Winds: calm
Visibility: 6 or more miles (10+ km)
Ceiling: 3500 feet AGL
Clouds: overcast cloud deck at 3500 feet AGL
Weather: -RA  (light rain)
SOME DATA ABOVE MAY BE INACCURATE!!!
"$" is an indication the sensor requires maintenance

METAR text: OAIX 222257Z 00000KT 9999 -RA OVC033 07/06 A3019 RMK SLP169 P0000 T00710060 $
Conditions at: OAIX (BAGRAM , AF) observed 2257 UTC 22 March 2019
Temperature: 7.1°C (45°F)
Dewpoint: 6.0°C (43°F) [RH = 93%]
Pressure (altimeter): 30.19 inches Hg (1022.4 mb)
[Sea-level pressure: 1016.9 mb]
Winds: calm
Visibility: 6 or more miles (10+ km)
Ceiling: 3300 feet AGL
Clouds: overcast cloud deck at 3300 feet AGL
Weather: -RA  (light rain)
SOME DATA ABOVE MAY BE INACCURATE!!!
"$" is an indication the sensor requires maintenance

METAR text: OAIX 222159Z 00000KT 9999 -RA OVC031 08/06 A3020 RMK SLP172 P0001 T00750055 $
Conditions at: OAIX (BAGRAM , AF) observed 2159 UTC 22 March 2019
Temperature: 7.5°C (46°F)
Dewpoint: 5.5°C (42°F) [RH = 87%]
Pressure (altimeter): 30.20 inches Hg (1022.8 mb)
[Sea-level pressure: 1017.2 mb]
Winds: calm
Visibility: 6 or more miles (10+ km)
Ceiling: 3100 feet AGL
Clouds: overcast cloud deck at 3100 feet AGL
Weather: -RA  (light rain)
SOME DATA ABOVE MAY BE INACCURATE!!!
"$" is an indication the sensor requires maintenance

Forecast for: OAIX (BAGRAM , AF)
Text: TAF OAIX 240700Z 2407/2513 31004KT 9999 SKC QNH3010INS TX15/2412Z TN03/2501Z
Forecast period: 0700 UTC 24 March 2019 to 1300 UTC 25 March 2019
Forecast type: FROM: standard forecast or significant change
Winds: from the NW (310 degrees) at 5 MPH (4 knots; 2.1 m/s)
Visibility: 6 or more miles 10+ km)
Clouds: clear skies
Weather: no significant weather forecast for this period